createdAt,value
2022-07-27T00:01:14.318Z,23.44
2022-07-27T00:03:42.678Z,23.43
2022-07-27T00:06:10.816Z,23.37
2022-07-27T00:08:40.456Z,23.27
2022-07-27T00:11:10.788Z,23.24
2022-07-27T00:13:39.169Z,23.16
2022-07-27T00:16:07.415Z,23.16
2022-07-27T00:18:35.661Z,23.17
2022-07-27T00:21:03.610Z,23.20
2022-07-27T00:23:31.633Z,23.18
2022-07-27T00:26:01.089Z,23.21
2022-07-27T00:28:29.091Z,23.20
2022-07-27T00:30:57.157Z,23.21
2022-07-27T00:33:25.279Z,23.21
2022-07-27T00:35:53.278Z,23.16
2022-07-27T00:38:21.261Z,23.10
2022-07-27T00:40:49.330Z,23.10
2022-07-27T00:43:19.642Z,23.04
2022-07-27T00:45:47.671Z,23.05
2022-07-27T00:48:15.655Z,23.03
2022-07-27T00:50:45.960Z,22.95
2022-07-27T00:53:14.176Z,22.90
2022-07-27T00:55:42.209Z,22.91
2022-07-27T00:58:10.217Z,22.92
2022-07-27T01:00:40.280Z,22.73
2022-07-27T01:03:09.524Z,22.70
2022-07-27T01:05:42.393Z,22.66
2022-07-27T01:08:13.900Z,22.55
2022-07-27T01:10:43.264Z,22.55
2022-07-27T01:13:12.707Z,22.58
2022-07-27T01:15:43.691Z,22.52
2022-07-27T01:18:26.956Z,22.52
2022-07-27T01:20:55.081Z,22.45
2022-07-27T01:23:24.684Z,22.48
2022-07-27T01:25:52.728Z,22.49
2022-07-27T01:28:20.822Z,22.56
2022-07-27T01:30:48.893Z,22.51
2022-07-27T01:33:16.991Z,22.59
2022-07-27T01:35:45.194Z,22.40
2022-07-27T01:38:14.483Z,22.38
2022-07-27T01:40:43.872Z,22.35
2022-07-27T01:43:11.971Z,22.33
2022-07-27T01:45:41.019Z,22.23
2022-07-27T01:50:37.007Z,22.28
2022-07-27T01:53:05.040Z,22.25
2022-07-27T01:55:38.607Z,22.13
2022-07-27T01:58:09.336Z,22.15
2022-07-27T02:00:37.547Z,22.09
2022-07-27T02:03:06.956Z,22.12
2022-07-27T02:05:35.064Z,22.12
2022-07-27T02:08:03.807Z,22.07
2022-07-27T02:10:32.071Z,22.11
2022-07-27T02:12:59.044Z,22.17
2022-07-27T02:15:42.173Z,22.33
2022-07-27T02:18:33.241Z,22.45
2022-07-27T02:20:59.432Z,22.46
2022-07-27T02:23:27.519Z,22.48
2022-07-27T02:25:55.578Z,22.50
2022-07-27T02:28:25.864Z,22.48
2022-07-27T02:30:55.393Z,22.55
2022-07-27T02:33:23.418Z,22.47
2022-07-27T02:35:52.170Z,22.48
2022-07-27T02:38:20.382Z,22.43
2022-07-27T02:40:48.326Z,22.45
2022-07-27T02:43:16.353Z,22.48
2022-07-27T02:45:46.448Z,22.51
2022-07-27T02:48:16.204Z,22.56
2022-07-27T02:50:44.227Z,22.58
2022-07-27T02:53:14.660Z,22.57
2022-07-27T02:55:42.729Z,22.51
2022-07-27T02:58:10.977Z,22.50
2022-07-27T03:00:39.006Z,22.46
2022-07-27T03:03:07.036Z,22.34
2022-07-27T03:05:36.726Z,22.32
2022-07-27T03:08:05.193Z,22.27
2022-07-27T03:10:33.477Z,22.22
2022-07-27T03:13:01.452Z,22.18
2022-07-27T03:15:30.419Z,22.13
2022-07-27T03:17:58.542Z,22.14
2022-07-27T03:20:26.628Z,22.04
2022-07-27T03:22:56.189Z,22.00
2022-07-27T03:25:24.508Z,21.87
2022-07-27T03:27:54.657Z,21.86
2022-07-27T03:30:22.688Z,21.76
2022-07-27T03:32:50.707Z,21.64
2022-07-27T03:35:19.741Z,21.54
2022-07-27T03:37:48.132Z,21.52
2022-07-27T03:40:17.748Z,21.52
2022-07-27T03:42:46.216Z,21.51
2022-07-27T03:45:14.252Z,21.47
2022-07-27T03:47:42.238Z,21.52
2022-07-27T03:50:10.649Z,21.43
2022-07-27T03:52:38.621Z,21.46
2022-07-27T03:55:07.745Z,21.44
2022-07-27T03:57:37.194Z,21.46
2022-07-27T04:00:07.014Z,21.51
2022-07-27T04:02:35.146Z,21.58
2022-07-27T04:05:03.231Z,21.52
2022-07-27T04:07:31.223Z,21.54
2022-07-27T04:09:59.221Z,21.67
2022-07-27T04:12:27.171Z,21.78
2022-07-27T04:14:56.528Z,21.86
2022-07-27T04:17:55.266Z,22.06
2022-07-27T04:20:12.813Z,22.16
2022-07-27T04:22:42.665Z,22.31
2022-07-27T04:25:11.512Z,22.44
2022-07-27T04:27:39.793Z,22.47
2022-07-27T04:30:10.717Z,22.57
2022-07-27T04:32:39.116Z,22.65
2022-07-27T04:35:08.658Z,22.74
2022-07-27T04:37:36.780Z,22.79
2022-07-27T04:40:07.217Z,22.85
2022-07-27T04:42:35.243Z,22.88
2022-07-27T04:45:05.761Z,22.94
2022-07-27T04:47:35.292Z,22.96
2022-07-27T04:50:03.457Z,22.99
2022-07-27T04:52:31.388Z,22.93
2022-07-27T04:54:59.441Z,22.93
2022-07-27T04:57:27.384Z,22.98
2022-07-27T04:59:59.513Z,22.91
2022-07-27T05:02:28.497Z,22.83
2022-07-27T05:04:57.892Z,22.91
2022-07-27T05:07:26.324Z,22.93
2022-07-27T05:09:54.404Z,22.88
2022-07-27T05:12:22.373Z,23.05
2022-07-27T05:14:50.746Z,23.11
2022-07-27T05:17:18.712Z,23.23
2022-07-27T05:19:46.736Z,23.12
2022-07-27T05:22:16.303Z,23.06
2022-07-27T05:24:45.666Z,23.03
2022-07-27T05:27:13.665Z,22.97
2022-07-27T05:29:41.714Z,23.00
2022-07-27T05:32:10.716Z,23.01
2022-07-27T05:34:38.936Z,23.06
2022-07-27T05:37:06.989Z,23.01
2022-07-27T05:39:36.655Z,23.08
2022-07-27T05:42:05.686Z,23.18
2022-07-27T05:44:33.969Z,23.34
2022-07-27T05:47:06.129Z,23.43
2022-07-27T05:49:35.070Z,23.58
2022-07-27T05:52:03.325Z,23.62
2022-07-27T05:54:31.484Z,23.66
2022-07-27T05:57:02.707Z,23.70
2022-07-27T05:59:32.725Z,23.67
2022-07-27T06:02:01.162Z,23.73
2022-07-27T06:04:29.271Z,23.81
2022-07-27T06:07:14.888Z,23.91
2022-07-27T06:09:43.008Z,23.95
2022-07-27T06:12:12.720Z,23.93
2022-07-27T06:14:40.878Z,23.96
2022-07-27T06:17:09.433Z,24.11
2022-07-27T06:19:41.016Z,24.21
2022-07-27T06:22:09.154Z,24.24
2022-07-27T06:24:37.239Z,24.27
2022-07-27T06:27:05.737Z,24.25
2022-07-27T06:29:35.354Z,24.27
2022-07-27T06:32:03.618Z,24.38
2022-07-27T06:34:32.303Z,24.57
2022-07-27T06:37:01.226Z,24.72
2022-07-27T06:39:30.084Z,24.75
2022-07-27T06:41:59.077Z,24.70
2022-07-27T06:44:27.505Z,24.67
2022-07-27T06:46:57.074Z,24.63
2022-07-27T06:49:25.258Z,24.50
2022-07-27T06:51:53.415Z,24.68
2022-07-27T06:54:22.292Z,24.84
2022-07-27T06:56:50.372Z,24.96
2022-07-27T06:59:18.703Z,25.01
2022-07-27T07:01:48.965Z,25.08
2022-07-27T07:04:25.215Z,25.16
2022-07-27T07:06:53.470Z,25.16
2022-07-27T07:09:22.165Z,25.10
2022-07-27T07:11:50.152Z,25.22
2022-07-27T07:14:18.280Z,25.31
2022-07-27T07:16:46.580Z,25.39
2022-07-27T07:19:14.838Z,25.49
2022-07-27T07:21:44.557Z,25.57
2022-07-27T07:24:13.881Z,25.56
2022-07-27T07:26:42.185Z,25.46
2022-07-27T07:29:10.665Z,25.55
2022-07-27T07:31:39.164Z,25.68
2022-07-27T07:34:07.386Z,25.79
2022-07-27T07:36:35.828Z,25.72
2022-07-27T07:39:05.694Z,25.82
2022-07-27T07:41:33.795Z,25.88
2022-07-27T07:44:01.772Z,25.90
2022-07-27T07:46:30.369Z,26.01
2022-07-27T07:48:58.542Z,26.02
2022-07-27T07:51:26.666Z,26.17
2022-07-27T07:53:54.829Z,26.36
2022-07-27T07:56:24.598Z,26.37
2022-07-27T07:58:52.638Z,26.57
2022-07-27T08:01:20.899Z,26.62
2022-07-27T08:03:51.325Z,26.63
2022-07-27T08:06:19.720Z,26.66
2022-07-27T08:08:47.964Z,26.91
2022-07-27T08:11:16.184Z,27.08
2022-07-27T08:13:45.736Z,27.08
2022-07-27T08:16:14.142Z,27.27
2022-07-27T08:18:42.381Z,27.31
2022-07-27T08:21:10.817Z,27.41
2022-07-27T08:23:39.197Z,27.49
2022-07-27T08:26:08.174Z,27.63
2022-07-27T08:28:37.708Z,27.88
2022-07-27T08:31:14.699Z,28.02
2022-07-27T08:33:46.958Z,28.17
2022-07-27T08:36:14.988Z,28.38
2022-07-27T08:38:43.000Z,28.53
2022-07-27T08:41:13.285Z,28.65
2022-07-27T08:43:45.069Z,28.81
2022-07-27T08:46:18.395Z,28.92
2022-07-27T08:48:46.746Z,29.03
2022-07-27T08:51:15.429Z,28.99
2022-07-27T08:53:53.628Z,29.02
2022-07-27T08:56:22.447Z,29.11
2022-07-27T08:58:50.524Z,29.27
2022-07-27T09:01:20.570Z,29.35
2022-07-27T09:03:48.872Z,29.39
2022-07-27T09:06:44.768Z,29.14
2022-07-27T09:09:22.812Z,29.19
2022-07-27T09:12:06.368Z,29.32
2022-07-27T09:14:36.022Z,29.53
2022-07-27T09:20:18.474Z,29.87
2022-07-27T09:22:50.995Z,29.97
2022-07-27T09:25:38.740Z,29.97
2022-07-27T09:28:10.626Z,30.05
2022-07-27T09:30:43.807Z,30.24
2022-07-27T09:33:16.931Z,30.32
2022-07-27T09:35:46.361Z,30.60
2022-07-27T09:38:21.032Z,30.79
2022-07-27T09:40:50.621Z,30.93
2022-07-27T09:44:12.183Z,31.03
2022-07-27T09:46:08.230Z,31.17
2022-07-27T09:48:38.033Z,31.22
2022-07-27T09:51:55.692Z,31.35
2022-07-27T09:53:59.158Z,31.47
2022-07-27T09:56:29.205Z,31.69
2022-07-27T09:58:58.237Z,31.82
2022-07-27T10:01:28.970Z,31.93
2022-07-27T10:04:01.587Z,31.71
2022-07-27T10:06:38.951Z,31.61
2022-07-27T10:09:16.049Z,31.71
2022-07-27T10:11:45.136Z,31.61
2022-07-27T10:14:13.614Z,31.66
2022-07-27T10:16:42.941Z,31.67
2022-07-27T10:19:16.729Z,31.77
2022-07-27T10:21:47.313Z,31.92
2022-07-27T10:24:26.980Z,32.01
2022-07-27T10:26:55.198Z,32.18
2022-07-27T10:29:24.753Z,32.28
2022-07-27T10:32:00.997Z,32.39
2022-07-27T10:34:38.716Z,32.02
2022-07-27T10:37:11.499Z,32.12
2022-07-27T10:39:43.180Z,32.26
2022-07-27T10:42:26.142Z,32.02
2022-07-27T10:45:02.230Z,32.22
2022-07-27T10:47:37.658Z,32.41
2022-07-27T10:50:33.385Z,32.56
2022-07-27T10:53:07.216Z,32.69
2022-07-27T10:55:52.189Z,32.73
2022-07-27T10:58:50.164Z,33.17
2022-07-27T11:01:22.926Z,33.52
2022-07-27T11:03:53.742Z,34.13
2022-07-27T11:06:47.841Z,34.51
2022-07-27T11:12:11.513Z,35.49
2022-07-27T11:14:50.395Z,36.08
2022-07-27T11:20:09.268Z,37.02
2022-07-27T11:23:40.853Z,37.46
2022-07-27T11:25:39.211Z,37.49
2022-07-27T11:28:08.288Z,37.92
2022-07-27T11:30:36.511Z,38.25
2022-07-27T11:33:07.352Z,38.44
2022-07-27T11:35:35.621Z,38.55
2022-07-27T11:38:07.704Z,38.40
2022-07-27T11:40:56.105Z,38.74
2022-07-27T11:43:38.318Z,39.07
2022-07-27T11:46:14.481Z,39.27
2022-07-27T11:51:38.679Z,38.62
2022-07-27T11:54:10.349Z,38.08
2022-07-27T11:56:40.585Z,38.70
2022-07-27T11:59:11.710Z,38.75
2022-07-27T12:01:42.610Z,38.74
2022-07-27T12:04:14.237Z,38.98
2022-07-27T12:06:44.951Z,39.28
2022-07-27T12:09:18.594Z,39.50
2022-07-27T12:11:53.614Z,39.74
2022-07-27T12:14:33.280Z,39.85
2022-07-27T12:17:13.499Z,39.98
2022-07-27T12:19:42.081Z,40.23
2022-07-27T12:22:10.772Z,40.24
2022-07-27T12:24:44.106Z,40.27
2022-07-27T12:27:14.925Z,39.83
2022-07-27T12:30:10.483Z,39.86
2022-07-27T12:32:41.473Z,40.36
2022-07-27T12:35:24.482Z,40.46
2022-07-27T12:38:00.149Z,40.59
2022-07-27T12:40:31.332Z,40.43
2022-07-27T12:43:00.925Z,40.38
2022-07-27T12:45:34.472Z,40.51
2022-07-27T12:48:07.799Z,40.59
2022-07-27T12:50:36.125Z,40.50
2022-07-27T12:53:04.409Z,40.42
2022-07-27T12:55:34.601Z,40.24
2022-07-27T12:58:02.793Z,40.52
2022-07-27T13:00:33.991Z,40.50
2022-07-27T13:03:03.600Z,40.73
2022-07-27T13:05:32.649Z,40.29
2022-07-27T13:08:00.810Z,40.46
2022-07-27T13:10:29.153Z,40.33
2022-07-27T13:12:59.107Z,40.79
2022-07-27T13:15:27.977Z,41.09
2022-07-27T13:17:56.118Z,41.14
2022-07-27T13:20:24.406Z,41.10
2022-07-27T13:22:53.159Z,41.25
2022-07-27T13:25:21.339Z,41.04
2022-07-27T13:27:50.497Z,40.38
2022-07-27T13:30:20.208Z,39.89
2022-07-27T13:32:48.244Z,39.14
2022-07-27T13:35:18.046Z,38.59
2022-07-27T13:37:46.578Z,37.83
2022-07-27T13:40:15.059Z,37.66
2022-07-27T13:42:43.259Z,37.36
2022-07-27T13:45:12.312Z,37.12
2022-07-27T13:47:42.487Z,36.72
2022-07-27T13:50:18.456Z,36.34
2022-07-27T13:52:47.517Z,36.05
2022-07-27T13:55:16.629Z,35.48
2022-07-27T13:57:44.911Z,35.26
2022-07-27T14:00:14.198Z,35.25
2022-07-27T14:02:43.719Z,35.26
2022-07-27T14:05:14.675Z,35.34
2022-07-27T14:07:44.816Z,35.81
2022-07-27T14:10:31.187Z,35.97
2022-07-27T14:13:08.095Z,35.94
2022-07-27T14:15:53.171Z,35.44
2022-07-27T14:18:37.045Z,35.68
2022-07-27T14:21:08.077Z,36.19
2022-07-27T14:23:37.292Z,36.24
2022-07-27T14:26:07.637Z,36.47
2022-07-27T14:28:36.176Z,36.52
2022-07-27T14:31:06.646Z,36.14
2022-07-27T14:33:38.136Z,35.44
2022-07-27T14:36:06.560Z,35.27
2022-07-27T14:38:35.154Z,35.23
2022-07-27T14:41:03.205Z,34.77
2022-07-27T14:43:31.775Z,34.45
2022-07-27T14:46:01.010Z,33.99
2022-07-27T14:49:02.787Z,33.30
2022-07-27T14:51:18.652Z,33.02
2022-07-27T14:53:46.733Z,32.64
2022-07-27T14:56:15.165Z,32.57
2022-07-27T14:58:44.069Z,32.41
2022-07-27T15:01:12.761Z,32.24
2022-07-27T15:03:41.301Z,31.83
2022-07-27T15:06:09.468Z,31.71
2022-07-27T15:08:38.913Z,31.62
2022-07-27T15:11:06.907Z,31.63
2022-07-27T15:13:35.121Z,31.67
2022-07-27T15:16:03.456Z,31.59
2022-07-27T15:18:38.013Z,31.68
2022-07-27T15:21:12.937Z,31.70
2022-07-27T15:23:44.563Z,31.65
2022-07-27T15:26:13.686Z,31.66
2022-07-27T15:28:42.437Z,31.60
2022-07-27T15:31:10.943Z,31.52
2022-07-27T15:33:39.241Z,31.42
2022-07-27T15:36:07.486Z,31.35
2022-07-27T15:38:35.570Z,31.42
2022-07-27T15:41:05.327Z,31.55
2022-07-27T15:43:34.482Z,31.58
2022-07-27T15:46:02.867Z,31.57
2022-07-27T15:48:31.157Z,31.58
2022-07-27T15:50:59.562Z,31.68
2022-07-27T15:53:28.896Z,31.66
2022-07-27T15:55:57.309Z,31.66
2022-07-27T15:58:26.712Z,31.59
2022-07-27T16:00:57.626Z,31.53
2022-07-27T16:03:26.201Z,31.51
2022-07-27T16:05:55.236Z,31.19
2022-07-27T16:08:23.900Z,30.95
2022-07-27T16:10:51.982Z,30.88
2022-07-27T16:13:20.033Z,30.63
2022-07-27T16:16:06.998Z,30.40
2022-07-27T16:18:38.794Z,30.31
2022-07-27T16:21:07.650Z,30.41
2022-07-27T16:23:35.704Z,30.46
2022-07-27T16:26:05.361Z,30.58
2022-07-27T16:28:35.616Z,30.50
2022-07-27T16:31:06.566Z,30.54
2022-07-27T16:33:34.676Z,30.46
2022-07-27T16:36:02.777Z,30.44
2022-07-27T16:45:33.494Z,30.46
2022-07-27T16:48:03.218Z,30.45
2022-07-27T16:50:31.309Z,30.48
2022-07-27T16:52:59.416Z,30.49
2022-07-27T16:55:27.769Z,30.60
2022-07-27T16:57:57.337Z,30.84
2022-07-27T17:00:25.552Z,31.02
2022-07-27T17:02:53.582Z,31.18
2022-07-27T17:05:23.436Z,31.30
2022-07-27T17:07:52.475Z,31.42
2022-07-27T17:10:26.649Z,31.47
2022-07-27T17:12:57.858Z,31.45
2022-07-27T17:15:26.612Z,31.55
2022-07-27T17:17:55.089Z,31.48
2022-07-27T17:20:35.169Z,31.47
2022-07-27T17:23:04.738Z,31.52
2022-07-27T17:25:32.950Z,31.33
2022-07-27T17:28:01.015Z,31.15
2022-07-27T17:30:29.054Z,30.96
2022-07-27T17:32:57.105Z,30.57
2022-07-27T17:35:29.329Z,30.40
2022-07-27T17:38:06.256Z,30.26
2022-07-27T17:40:35.273Z,29.93
2022-07-27T17:43:03.478Z,29.62
2022-07-27T17:45:31.967Z,29.32
2022-07-27T17:48:00.102Z,29.12
2022-07-27T17:50:31.131Z,28.89
2022-07-27T17:52:59.279Z,28.85
2022-07-27T17:55:27.257Z,28.65
2022-07-27T17:57:56.918Z,28.62
2022-07-27T18:00:24.955Z,28.55
2022-07-27T18:02:53.008Z,28.17
2022-07-27T18:05:21.066Z,27.94
2022-07-27T18:07:51.925Z,27.77
2022-07-27T18:10:20.220Z,27.63
2022-07-27T18:12:48.284Z,27.39
2022-07-27T18:15:34.018Z,27.57
2022-07-27T18:18:02.468Z,27.64
2022-07-27T18:20:30.698Z,27.58
2022-07-27T18:23:00.160Z,27.68
2022-07-27T18:25:28.160Z,27.71
2022-07-27T18:27:56.254Z,27.74
2022-07-27T18:30:24.373Z,27.77
2022-07-27T18:32:52.381Z,27.70
2022-07-27T18:35:20.966Z,27.47
2022-07-27T18:37:49.192Z,27.46
2022-07-27T18:40:18.719Z,27.42
2022-07-27T18:42:47.157Z,27.42
2022-07-27T18:45:15.276Z,27.41
2022-07-27T18:47:49.455Z,27.40
2022-07-27T18:50:17.913Z,27.35
2022-07-27T18:52:46.216Z,27.36
2022-07-27T18:55:14.865Z,27.41
2022-07-27T18:57:44.789Z,27.38
2022-07-27T19:00:13.639Z,27.32
2022-07-27T19:02:42.207Z,27.32
2022-07-27T19:05:13.419Z,27.29
2022-07-27T19:07:46.779Z,27.14
2022-07-27T19:10:15.975Z,27.14
2022-07-27T19:12:45.525Z,27.01
2022-07-27T19:15:13.604Z,26.96
2022-07-27T19:17:41.761Z,26.92
2022-07-27T19:20:11.187Z,26.84
2022-07-27T19:22:45.448Z,26.82
2022-07-27T19:25:14.208Z,26.90
2022-07-27T19:27:43.902Z,26.73
2022-07-27T19:30:15.670Z,26.82
2022-07-27T19:32:44.359Z,26.83
2022-07-27T19:35:12.612Z,26.75
2022-07-27T19:37:41.040Z,26.65
2022-07-27T19:40:41.514Z,26.68
2022-07-27T19:42:58.728Z,26.63
2022-07-27T19:45:31.690Z,26.55
2022-07-27T19:48:01.371Z,26.54
2022-07-27T19:50:29.388Z,26.43
2022-07-27T19:52:57.392Z,26.38
2022-07-27T19:55:25.554Z,26.34
2022-07-27T19:57:53.745Z,26.30
2022-07-27T20:00:22.156Z,26.13
2022-07-27T20:02:51.653Z,26.11
2022-07-27T20:05:19.834Z,26.08
2022-07-27T20:07:47.828Z,25.99
2022-07-27T20:10:16.314Z,25.87
2022-07-27T20:12:44.409Z,25.76
2022-07-27T20:15:12.645Z,25.72
2022-07-27T20:17:40.914Z,25.53
2022-07-27T20:20:12.744Z,25.45
2022-07-27T20:22:41.143Z,25.27
2022-07-27T20:25:13.503Z,25.32
2022-07-27T20:27:42.059Z,25.30
2022-07-27T20:30:11.795Z,25.33
2022-07-27T20:32:40.064Z,25.28
2022-07-27T20:35:09.061Z,25.19
2022-07-27T20:37:38.770Z,25.13
2022-07-27T20:40:09.728Z,25.11
2022-07-27T20:42:38.148Z,24.92
2022-07-27T20:45:11.132Z,24.80
2022-07-27T20:47:39.570Z,24.77
2022-07-27T20:50:09.759Z,24.76
2022-07-27T20:52:39.672Z,24.72
2022-07-27T20:55:08.639Z,24.68
2022-07-27T20:57:36.852Z,24.70
2022-07-27T21:00:07.784Z,24.70
2022-07-27T21:02:36.036Z,24.69
2022-07-27T21:05:04.656Z,24.74
2022-07-27T21:07:33.421Z,24.72
2022-07-27T21:10:03.029Z,24.74
2022-07-27T21:12:31.087Z,24.75
2022-07-27T21:15:00.959Z,24.81
2022-07-27T21:17:29.557Z,24.75
2022-07-27T21:19:57.642Z,24.70
2022-07-27T21:22:25.698Z,24.59
2022-07-27T21:24:53.838Z,24.64
2022-07-27T21:27:23.826Z,24.66
2022-07-27T21:29:52.889Z,24.62
2022-07-27T21:32:20.895Z,24.56
2022-07-27T21:34:48.982Z,24.52
2022-07-27T21:37:17.544Z,24.47
2022-07-27T21:39:48.649Z,24.34
2022-07-27T21:42:16.754Z,24.21
2022-07-27T21:44:46.179Z,24.22
2022-07-27T21:47:14.552Z,24.09
2022-07-27T21:49:43.273Z,23.95
2022-07-27T21:52:12.255Z,23.80
2022-07-27T21:54:40.468Z,23.76
2022-07-27T21:57:08.528Z,23.73
2022-07-27T21:59:36.537Z,23.71
2022-07-27T22:02:05.928Z,23.60
2022-07-27T22:04:34.170Z,23.60
2022-07-27T22:07:02.377Z,23.47
2022-07-27T22:09:30.676Z,23.36
2022-07-27T22:11:58.700Z,23.28
2022-07-27T22:14:26.936Z,23.29
2022-07-27T22:16:55.040Z,23.34
2022-07-27T22:19:24.527Z,23.39
2022-07-27T22:21:52.592Z,23.36
2022-07-27T22:24:20.613Z,23.38
2022-07-27T22:26:49.957Z,23.36
2022-07-27T22:29:17.989Z,23.35
2022-07-27T22:31:46.130Z,23.33
2022-07-27T22:34:14.442Z,23.36
2022-07-27T22:36:44.124Z,23.41
2022-07-27T22:39:12.909Z,23.39
2022-07-27T22:41:41.495Z,23.33
2022-07-27T22:44:09.476Z,23.32
2022-07-27T22:46:37.544Z,23.29
2022-07-27T22:49:05.878Z,23.29
2022-07-27T22:51:50.019Z,23.33
2022-07-27T22:54:23.014Z,23.38
2022-07-27T22:56:50.986Z,23.47
2022-07-27T22:59:19.050Z,23.48
2022-07-27T23:01:48.357Z,23.43
2022-07-27T23:04:17.947Z,23.52
2022-07-27T23:06:46.569Z,23.55
2022-07-27T23:09:14.621Z,23.60
2022-07-27T23:11:44.430Z,23.62
2022-07-27T23:14:13.340Z,23.65
2022-07-27T23:16:42.081Z,23.66
2022-07-27T23:19:10.355Z,23.76
2022-07-27T23:21:39.542Z,23.76
2022-07-27T23:24:10.156Z,23.76
2022-07-27T23:26:39.247Z,23.79
2022-07-27T23:29:08.861Z,23.80
2022-07-27T23:31:37.001Z,23.81
2022-07-27T23:34:05.412Z,23.84
2022-07-27T23:36:33.430Z,23.79
2022-07-27T23:39:01.650Z,23.81
2022-07-27T23:41:29.655Z,23.96
2022-07-27T23:43:57.645Z,24.07
2022-07-27T23:46:27.065Z,24.09
2022-07-27T23:48:55.435Z,24.09
2022-07-27T23:51:23.660Z,23.95
2022-07-27T23:53:51.666Z,24.00
2022-07-27T23:56:19.714Z,23.90
2022-07-27T23:58:47.741Z,23.90
